sensor_id;sensor_type;location;lat;lon;timestamp;P1;durP1;ratioP1;P2;durP2;ratioP2
75061;SDS011;63641;46.526;24.612;2023-11-22T00:00:59;18.75;;;16.42;;
75061;SDS011;63641;46.526;24.612;2023-11-22T00:03:26;18.10;;;15.50;;
75061;SDS011;63641;46.526;24.612;2023-11-22T00:05:53;18.25;;;15.93;;
75061;SDS011;63641;46.526;24.612;2023-11-22T00:08:19;18.92;;;15.10;;
75061;SDS011;63641;46.526;24.612;2023-11-22T00:10:46;16.75;;;14.70;;
75061;SDS011;63641;46.526;24.612;2023-11-22T00:13:13;16.95;;;14.20;;
75061;SDS011;63641;46.526;24.612;2023-11-22T00:15:40;16.73;;;14.75;;
75061;SDS011;63641;46.526;24.612;2023-11-22T00:18:06;15.25;;;13.32;;
75061;SDS011;63641;46.526;24.612;2023-11-22T00:20:33;15.48;;;13.30;;
75061;SDS011;63641;46.526;24.612;2023-11-22T00:23:00;18.50;;;12.98;;
75061;SDS011;63641;46.526;24.612;2023-11-22T00:25:27;15.85;;;12.38;;
75061;SDS011;63641;46.526;24.612;2023-11-22T00:27:54;15.07;;;12.98;;
75061;SDS011;63641;46.526;24.612;2023-11-22T00:30:21;12.65;;;11.13;;
75061;SDS011;63641;46.526;24.612;2023-11-22T00:32:49;13.10;;;11.70;;
75061;SDS011;63641;46.526;24.612;2023-11-22T00:35:16;11.65;;;10.45;;
75061;SDS011;63641;46.526;24.612;2023-11-22T00:37:43;15.13;;;11.15;;
75061;SDS011;63641;46.526;24.612;2023-11-22T00:40:09;13.93;;;11.25;;
75061;SDS011;63641;46.526;24.612;2023-11-22T00:42:37;13.60;;;12.02;;
75061;SDS011;63641;46.526;24.612;2023-11-22T00:45:06;14.50;;;11.80;;
75061;SDS011;63641;46.526;24.612;2023-11-22T00:47:34;12.27;;;10.95;;
75061;SDS011;63641;46.526;24.612;2023-11-22T00:50:01;18.67;;;11.45;;
75061;SDS011;63641;46.526;24.612;2023-11-22T00:52:30;11.35;;;9.48;;
75061;SDS011;63641;46.526;24.612;2023-11-22T00:54:57;13.00;;;11.57;;
75061;SDS011;63641;46.526;24.612;2023-11-22T00:57:24;13.27;;;10.60;;
75061;SDS011;63641;46.526;24.612;2023-11-22T00:59:53;13.63;;;10.85;;
75061;SDS011;63641;46.526;24.612;2023-11-22T01:02:20;12.55;;;10.13;;
75061;SDS011;63641;46.526;24.612;2023-11-22T01:04:47;12.70;;;11.02;;
75061;SDS011;63641;46.526;24.612;2023-11-22T01:07:13;11.55;;;9.95;;
75061;SDS011;63641;46.526;24.612;2023-11-22T01:09:40;11.55;;;10.35;;
75061;SDS011;63641;46.526;24.612;2023-11-22T01:12:07;12.23;;;10.20;;
75061;SDS011;63641;46.526;24.612;2023-11-22T01:14:35;11.65;;;10.40;;
75061;SDS011;63641;46.526;24.612;2023-11-22T01:17:02;12.50;;;10.98;;
75061;SDS011;63641;46.526;24.612;2023-11-22T01:19:29;27.50;;;20.63;;
75061;SDS011;63641;46.526;24.612;2023-11-22T01:21:56;27.45;;;21.25;;
75061;SDS011;63641;46.526;24.612;2023-11-22T01:24:22;24.88;;;22.10;;
75061;SDS011;63641;46.526;24.612;2023-11-22T01:26:50;24.52;;;19.98;;
75061;SDS011;63641;46.526;24.612;2023-11-22T01:29:16;20.88;;;18.45;;
75061;SDS011;63641;46.526;24.612;2023-11-22T01:31:43;23.23;;;18.35;;
75061;SDS011;63641;46.526;24.612;2023-11-22T01:34:10;25.65;;;19.77;;
75061;SDS011;63641;46.526;24.612;2023-11-22T01:36:39;23.95;;;18.85;;
75061;SDS011;63641;46.526;24.612;2023-11-22T01:39:08;23.75;;;19.38;;
75061;SDS011;63641;46.526;24.612;2023-11-22T01:41:36;23.60;;;18.58;;
75061;SDS011;63641;46.526;24.612;2023-11-22T01:44:03;23.92;;;20.10;;
75061;SDS011;63641;46.526;24.612;2023-11-22T01:46:30;23.85;;;19.95;;
75061;SDS011;63641;46.526;24.612;2023-11-22T01:48:56;23.45;;;20.05;;
75061;SDS011;63641;46.526;24.612;2023-11-22T01:51:23;21.88;;;19.50;;
75061;SDS011;63641;46.526;24.612;2023-11-22T01:53:51;23.65;;;18.75;;
75061;SDS011;63641;46.526;24.612;2023-11-22T01:56:20;22.52;;;17.98;;
75061;SDS011;63641;46.526;24.612;2023-11-22T01:58:49;20.67;;;17.45;;
75061;SDS011;63641;46.526;24.612;2023-11-22T02:01:16;20.98;;;17.95;;
75061;SDS011;63641;46.526;24.612;2023-11-22T02:03:45;24.58;;;20.20;;
75061;SDS011;63641;46.526;24.612;2023-11-22T02:06:12;20.63;;;16.38;;
75061;SDS011;63641;46.526;24.612;2023-11-22T02:08:39;18.15;;;16.05;;
75061;SDS011;63641;46.526;24.612;2023-11-22T02:11:05;24.95;;;17.30;;
75061;SDS011;63641;46.526;24.612;2023-11-22T02:13:32;18.95;;;16.88;;
75061;SDS011;63641;46.526;24.612;2023-11-22T02:15:59;17.00;;;15.20;;
75061;SDS011;63641;46.526;24.612;2023-11-22T02:18:27;14.45;;;12.98;;
75061;SDS011;63641;46.526;24.612;2023-11-22T02:20:55;14.65;;;13.10;;
75061;SDS011;63641;46.526;24.612;2023-11-22T02:23:22;13.05;;;10.63;;
75061;SDS011;63641;46.526;24.612;2023-11-22T02:25:49;12.43;;;9.80;;
75061;SDS011;63641;46.526;24.612;2023-11-22T02:28:15;11.82;;;10.32;;
75061;SDS011;63641;46.526;24.612;2023-11-22T02:30:42;13.82;;;11.90;;
75061;SDS011;63641;46.526;24.612;2023-11-22T02:33:09;15.70;;;11.77;;
75061;SDS011;63641;46.526;24.612;2023-11-22T02:35:36;12.48;;;10.82;;
75061;SDS011;63641;46.526;24.612;2023-11-22T02:38:03;11.98;;;8.85;;
75061;SDS011;63641;46.526;24.612;2023-11-22T02:40:31;9.27;;;8.30;;
75061;SDS011;63641;46.526;24.612;2023-11-22T02:42:58;11.00;;;9.32;;
75061;SDS011;63641;46.526;24.612;2023-11-22T02:45:33;11.38;;;9.50;;
75061;SDS011;63641;46.526;24.612;2023-11-22T02:48:00;10.65;;;9.02;;
75061;SDS011;63641;46.526;24.612;2023-11-22T02:50:30;14.95;;;10.18;;
75061;SDS011;63641;46.526;24.612;2023-11-22T02:53:00;10.95;;;9.75;;
75061;SDS011;63641;46.526;24.612;2023-11-22T02:55:28;26.67;;;21.02;;
75061;SDS011;63641;46.526;24.612;2023-11-22T02:57:55;15.50;;;12.20;;
75061;SDS011;63641;46.526;24.612;2023-11-22T03:00:22;12.82;;;11.27;;
75061;SDS011;63641;46.526;24.612;2023-11-22T03:02:50;15.50;;;13.90;;
75061;SDS011;63641;46.526;24.612;2023-11-22T03:05:20;18.60;;;16.60;;
75061;SDS011;63641;46.526;24.612;2023-11-22T03:07:48;20.88;;;17.77;;
75061;SDS011;63641;46.526;24.612;2023-11-22T03:10:17;18.83;;;15.75;;
75061;SDS011;63641;46.526;24.612;2023-11-22T03:12:44;20.00;;;17.35;;
75061;SDS011;63641;46.526;24.612;2023-11-22T03:15:11;19.45;;;15.50;;
75061;SDS011;63641;46.526;24.612;2023-11-22T03:17:38;20.38;;;16.13;;
75061;SDS011;63641;46.526;24.612;2023-11-22T03:20:05;19.38;;;17.30;;
75061;SDS011;63641;46.526;24.612;2023-11-22T03:22:37;20.77;;;15.85;;
75061;SDS011;63641;46.526;24.612;2023-11-22T03:25:04;16.42;;;14.48;;
75061;SDS011;63641;46.526;24.612;2023-11-22T03:27:31;18.70;;;15.80;;
75061;SDS011;63641;46.526;24.612;2023-11-22T03:29:59;19.63;;;15.55;;
75061;SDS011;63641;46.526;24.612;2023-11-22T03:32:26;18.02;;;14.05;;
75061;SDS011;63641;46.526;24.612;2023-11-22T03:34:53;16.08;;;13.50;;
75061;SDS011;63641;46.526;24.612;2023-11-22T03:37:20;14.93;;;13.07;;
75061;SDS011;63641;46.526;24.612;2023-11-22T03:39:47;14.55;;;13.02;;
75061;SDS011;63641;46.526;24.612;2023-11-22T03:42:16;14.70;;;13.15;;
75061;SDS011;63641;46.526;24.612;2023-11-22T03:44:43;15.35;;;13.38;;
75061;SDS011;63641;46.526;24.612;2023-11-22T03:47:10;14.50;;;13.10;;
75061;SDS011;63641;46.526;24.612;2023-11-22T03:49:39;16.38;;;13.68;;
75061;SDS011;63641;46.526;24.612;2023-11-22T03:52:06;16.25;;;12.35;;
75061;SDS011;63641;46.526;24.612;2023-11-22T03:54:32;17.42;;;13.05;;
75061;SDS011;63641;46.526;24.612;2023-11-22T03:56:59;13.18;;;11.88;;
75061;SDS011;63641;46.526;24.612;2023-11-22T03:59:26;12.40;;;11.10;;
75061;SDS011;63641;46.526;24.612;2023-11-22T04:01:52;12.77;;;11.48;;
75061;SDS011;63641;46.526;24.612;2023-11-22T04:04:19;12.05;;;10.70;;
75061;SDS011;63641;46.526;24.612;2023-11-22T04:06:46;11.75;;;10.55;;
75061;SDS011;63641;46.526;24.612;2023-11-22T04:09:13;12.50;;;11.18;;
75061;SDS011;63641;46.526;24.612;2023-11-22T04:11:40;13.90;;;10.55;;
75061;SDS011;63641;46.526;24.612;2023-11-22T04:14:06;13.02;;;10.52;;
75061;SDS011;63641;46.526;24.612;2023-11-22T04:16:34;13.55;;;11.75;;
75061;SDS011;63641;46.526;24.612;2023-11-22T04:19:01;12.15;;;10.02;;
75061;SDS011;63641;46.526;24.612;2023-11-22T04:21:28;12.05;;;10.85;;
75061;SDS011;63641;46.526;24.612;2023-11-22T04:23:55;12.50;;;10.75;;
75061;SDS011;63641;46.526;24.612;2023-11-22T04:26:23;11.40;;;10.30;;
75061;SDS011;63641;46.526;24.612;2023-11-22T04:28:51;11.63;;;9.60;;
75061;SDS011;63641;46.526;24.612;2023-11-22T04:31:17;12.82;;;11.25;;
75061;SDS011;63641;46.526;24.612;2023-11-22T04:33:44;13.52;;;11.40;;
75061;SDS011;63641;46.526;24.612;2023-11-22T04:36:11;13.38;;;12.00;;
75061;SDS011;63641;46.526;24.612;2023-11-22T04:38:38;16.15;;;11.93;;
75061;SDS011;63641;46.526;24.612;2023-11-22T04:41:05;12.57;;;11.35;;
75061;SDS011;63641;46.526;24.612;2023-11-22T04:43:31;13.18;;;11.48;;
75061;SDS011;63641;46.526;24.612;2023-11-22T04:45:58;12.68;;;11.38;;
75061;SDS011;63641;46.526;24.612;2023-11-22T04:48:25;16.27;;;12.65;;
75061;SDS011;63641;46.526;24.612;2023-11-22T04:50:52;19.85;;;17.20;;
75061;SDS011;63641;46.526;24.612;2023-11-22T04:53:19;24.08;;;20.55;;
75061;SDS011;63641;46.526;24.612;2023-11-22T04:55:45;31.85;;;25.65;;
75061;SDS011;63641;46.526;24.612;2023-11-22T04:58:12;24.17;;;20.52;;
75061;SDS011;63641;46.526;24.612;2023-11-22T05:00:38;24.85;;;21.83;;
75061;SDS011;63641;46.526;24.612;2023-11-22T05:03:05;20.65;;;18.33;;
75061;SDS011;63641;46.526;24.612;2023-11-22T05:05:33;17.95;;;15.52;;
75061;SDS011;63641;46.526;24.612;2023-11-22T05:08:00;18.15;;;15.80;;
75061;SDS011;63641;46.526;24.612;2023-11-22T05:10:29;21.35;;;18.88;;
75061;SDS011;63641;46.526;24.612;2023-11-22T05:12:55;16.55;;;13.75;;
75061;SDS011;63641;46.526;24.612;2023-11-22T05:15:28;13.32;;;11.93;;
75061;SDS011;63641;46.526;24.612;2023-11-22T05:17:55;11.05;;;9.70;;
75061;SDS011;63641;46.526;24.612;2023-11-22T05:20:22;11.20;;;9.30;;
75061;SDS011;63641;46.526;24.612;2023-11-22T05:22:49;9.57;;;8.43;;
75061;SDS011;63641;46.526;24.612;2023-11-22T05:25:15;10.68;;;8.95;;
75061;SDS011;63641;46.526;24.612;2023-11-22T05:27:42;9.95;;;8.88;;
75061;SDS011;63641;46.526;24.612;2023-11-22T05:30:09;12.60;;;8.93;;
75061;SDS011;63641;46.526;24.612;2023-11-22T05:32:37;10.30;;;9.25;;
75061;SDS011;63641;46.526;24.612;2023-11-22T05:35:04;11.43;;;9.43;;
75061;SDS011;63641;46.526;24.612;2023-11-22T05:37:36;9.43;;;8.43;;
75061;SDS011;63641;46.526;24.612;2023-11-22T05:40:04;10.10;;;9.05;;
75061;SDS011;63641;46.526;24.612;2023-11-22T05:42:31;10.68;;;9.57;;
75061;SDS011;63641;46.526;24.612;2023-11-22T05:44:58;11.18;;;9.40;;
75061;SDS011;63641;46.526;24.612;2023-11-22T05:47:24;12.43;;;9.48;;
75061;SDS011;63641;46.526;24.612;2023-11-22T05:49:52;10.30;;;8.57;;
75061;SDS011;63641;46.526;24.612;2023-11-22T05:52:18;8.68;;;7.80;;
75061;SDS011;63641;46.526;24.612;2023-11-22T05:54:46;9.75;;;8.75;;
75061;SDS011;63641;46.526;24.612;2023-11-22T05:57:14;9.63;;;8.63;;
75061;SDS011;63641;46.526;24.612;2023-11-22T05:59:41;10.02;;;8.60;;
75061;SDS011;63641;46.526;24.612;2023-11-22T06:02:08;9.70;;;8.70;;
75061;SDS011;63641;46.526;24.612;2023-11-22T06:04:35;10.38;;;9.27;;
75061;SDS011;63641;46.526;24.612;2023-11-22T06:07:04;10.68;;;9.05;;
75061;SDS011;63641;46.526;24.612;2023-11-22T06:09:31;9.10;;;8.20;;
75061;SDS011;63641;46.526;24.612;2023-11-22T06:11:57;8.95;;;8.02;;
75061;SDS011;63641;46.526;24.612;2023-11-22T06:14:24;12.00;;;10.35;;
75061;SDS011;63641;46.526;24.612;2023-11-22T06:16:51;11.85;;;10.65;;
75061;SDS011;63641;46.526;24.612;2023-11-22T06:19:17;18.75;;;14.43;;
75061;SDS011;63641;46.526;24.612;2023-11-22T06:21:44;19.27;;;15.07;;
75061;SDS011;63641;46.526;24.612;2023-11-22T06:24:12;18.52;;;13.15;;
75061;SDS011;63641;46.526;24.612;2023-11-22T06:26:42;14.68;;;12.63;;
75061;SDS011;63641;46.526;24.612;2023-11-22T06:29:10;23.50;;;19.88;;
75061;SDS011;63641;46.526;24.612;2023-11-22T06:31:36;21.35;;;17.20;;
75061;SDS011;63641;46.526;24.612;2023-11-22T06:34:03;21.02;;;17.60;;
75061;SDS011;63641;46.526;24.612;2023-11-22T06:36:30;22.75;;;19.48;;
75061;SDS011;63641;46.526;24.612;2023-11-22T06:38:57;25.17;;;18.58;;
75061;SDS011;63641;46.526;24.612;2023-11-22T06:41:23;24.63;;;19.92;;
75061;SDS011;63641;46.526;24.612;2023-11-22T06:43:50;21.30;;;18.70;;
75061;SDS011;63641;46.526;24.612;2023-11-22T06:46:17;20.15;;;17.95;;
75061;SDS011;63641;46.526;24.612;2023-11-22T06:48:43;20.15;;;16.58;;
75061;SDS011;63641;46.526;24.612;2023-11-22T06:51:14;18.80;;;15.40;;
75061;SDS011;63641;46.526;24.612;2023-11-22T06:53:41;17.38;;;15.23;;
75061;SDS011;63641;46.526;24.612;2023-11-22T06:56:07;18.67;;;14.57;;
75061;SDS011;63641;46.526;24.612;2023-11-22T06:58:34;16.90;;;14.68;;
75061;SDS011;63641;46.526;24.612;2023-11-22T07:01:01;18.83;;;15.43;;
75061;SDS011;63641;46.526;24.612;2023-11-22T07:03:27;23.52;;;16.45;;
75061;SDS011;63641;46.526;24.612;2023-11-22T07:05:54;19.77;;;15.82;;
75061;SDS011;63641;46.526;24.612;2023-11-22T07:08:22;18.95;;;16.25;;
75061;SDS011;63641;46.526;24.612;2023-11-22T07:10:48;19.00;;;16.50;;
75061;SDS011;63641;46.526;24.612;2023-11-22T07:13:16;13.18;;;11.23;;
75061;SDS011;63641;46.526;24.612;2023-11-22T07:15:44;13.15;;;10.55;;
75061;SDS011;63641;46.526;24.612;2023-11-22T07:18:18;11.50;;;9.69;;
75061;SDS011;63641;46.526;24.612;2023-11-22T07:20:45;10.30;;;7.40;;
75061;SDS011;63641;46.526;24.612;2023-11-22T07:23:14;6.78;;;6.03;;
75061;SDS011;63641;46.526;24.612;2023-11-22T07:25:42;6.93;;;5.75;;
75061;SDS011;63641;46.526;24.612;2023-11-22T07:28:09;6.75;;;6.10;;
75061;SDS011;63641;46.526;24.612;2023-11-22T07:30:36;8.48;;;6.07;;
75061;SDS011;63641;46.526;24.612;2023-11-22T07:33:05;6.65;;;5.95;;
75061;SDS011;63641;46.526;24.612;2023-11-22T07:35:33;11.93;;;6.28;;
75061;SDS011;63641;46.526;24.612;2023-11-22T07:37:59;7.63;;;5.93;;
75061;SDS011;63641;46.526;24.612;2023-11-22T07:40:26;7.65;;;5.82;;
75061;SDS011;63641;46.526;24.612;2023-11-22T07:42:53;6.32;;;5.72;;
75061;SDS011;63641;46.526;24.612;2023-11-22T07:45:21;7.97;;;5.93;;
75061;SDS011;63641;46.526;24.612;2023-11-22T07:47:48;7.57;;;5.60;;
75061;SDS011;63641;46.526;24.612;2023-11-22T07:50:15;6.18;;;5.40;;
75061;SDS011;63641;46.526;24.612;2023-11-22T07:52:42;5.85;;;5.28;;
75061;SDS011;63641;46.526;24.612;2023-11-22T07:55:10;6.20;;;5.60;;
75061;SDS011;63641;46.526;24.612;2023-11-22T07:57:38;6.22;;;5.63;;
75061;SDS011;63641;46.526;24.612;2023-11-22T08:00:07;5.93;;;5.03;;
75061;SDS011;63641;46.526;24.612;2023-11-22T08:02:35;5.63;;;4.93;;
75061;SDS011;63641;46.526;24.612;2023-11-22T08:05:05;5.63;;;4.63;;
75061;SDS011;63641;46.526;24.612;2023-11-22T08:07:38;5.78;;;5.18;;
75061;SDS011;63641;46.526;24.612;2023-11-22T08:10:07;5.78;;;5.18;;
75061;SDS011;63641;46.526;24.612;2023-11-22T08:12:54;5.60;;;4.80;;
75061;SDS011;63641;46.526;24.612;2023-11-22T08:15:21;7.07;;;5.60;;
75061;SDS011;63641;46.526;24.612;2023-11-22T08:17:48;6.93;;;5.85;;
75061;SDS011;63641;46.526;24.612;2023-11-22T08:20:14;7.72;;;5.47;;
75061;SDS011;63641;46.526;24.612;2023-11-22T08:22:45;7.57;;;6.40;;
75061;SDS011;63641;46.526;24.612;2023-11-22T08:25:12;6.47;;;5.70;;
75061;SDS011;63641;46.526;24.612;2023-11-22T08:27:39;8.55;;;6.30;;
75061;SDS011;63641;46.526;24.612;2023-11-22T08:30:10;6.97;;;6.28;;
75061;SDS011;63641;46.526;24.612;2023-11-22T08:32:42;9.02;;;5.85;;
75061;SDS011;63641;46.526;24.612;2023-11-22T08:35:10;8.05;;;5.47;;
75061;SDS011;63641;46.526;24.612;2023-11-22T08:37:39;8.50;;;6.18;;
75061;SDS011;63641;46.526;24.612;2023-11-22T08:40:08;6.95;;;5.93;;
75061;SDS011;63641;46.526;24.612;2023-11-22T08:42:43;6.95;;;6.22;;
75061;SDS011;63641;46.526;24.612;2023-11-22T08:45:10;7.22;;;6.15;;
75061;SDS011;63641;46.526;24.612;2023-11-22T08:47:39;8.02;;;6.93;;
75061;SDS011;63641;46.526;24.612;2023-11-22T08:50:07;7.63;;;6.43;;
75061;SDS011;63641;46.526;24.612;2023-11-22T08:52:42;10.55;;;6.70;;
75061;SDS011;63641;46.526;24.612;2023-11-22T08:55:09;11.82;;;7.88;;
75061;SDS011;63641;46.526;24.612;2023-11-22T08:57:36;9.93;;;8.18;;
75061;SDS011;63641;46.526;24.612;2023-11-22T09:00:07;17.90;;;10.13;;
75061;SDS011;63641;46.526;24.612;2023-11-22T09:02:36;13.38;;;11.13;;
75061;SDS011;63641;46.526;24.612;2023-11-22T09:05:04;18.73;;;10.48;;
75061;SDS011;63641;46.526;24.612;2023-11-22T09:07:35;17.83;;;12.50;;
75061;SDS011;63641;46.526;24.612;2023-11-22T09:10:03;15.57;;;12.43;;
75061;SDS011;63641;46.526;24.612;2023-11-22T09:12:36;14.77;;;12.20;;
75061;SDS011;63641;46.526;24.612;2023-11-22T09:15:08;16.23;;;12.50;;
75061;SDS011;63641;46.526;24.612;2023-11-22T09:17:44;15.77;;;12.80;;
75061;SDS011;63641;46.526;24.612;2023-11-22T09:20:13;14.52;;;11.40;;
75061;SDS011;63641;46.526;24.612;2023-11-22T09:22:48;19.85;;;11.60;;
75061;SDS011;63641;46.526;24.612;2023-11-22T09:25:17;17.38;;;12.10;;
75061;SDS011;63641;46.526;24.612;2023-11-22T09:27:46;16.38;;;11.48;;
75061;SDS011;63641;46.526;24.612;2023-11-22T09:30:15;17.85;;;11.40;;
75061;SDS011;63641;46.526;24.612;2023-11-22T09:32:59;18.08;;;11.27;;
75061;SDS011;63641;46.526;24.612;2023-11-22T09:35:28;12.88;;;11.02;;
75061;SDS011;63641;46.526;24.612;2023-11-22T09:38:02;18.20;;;12.23;;
75061;SDS011;63641;46.526;24.612;2023-11-22T09:40:30;14.07;;;10.52;;
75061;SDS011;63641;46.526;24.612;2023-11-22T09:43:02;15.15;;;11.40;;
75061;SDS011;63641;46.526;24.612;2023-11-22T09:45:29;13.07;;;10.93;;
75061;SDS011;63641;46.526;24.612;2023-11-22T09:47:57;12.63;;;10.48;;
75061;SDS011;63641;46.526;24.612;2023-11-22T09:50:40;15.75;;;10.80;;
75061;SDS011;63641;46.526;24.612;2023-11-22T09:53:31;15.13;;;10.95;;
75061;SDS011;63641;46.526;24.612;2023-11-22T09:56:03;17.98;;;11.30;;
75061;SDS011;63641;46.526;24.612;2023-11-22T09:58:31;16.95;;;11.65;;
75061;SDS011;63641;46.526;24.612;2023-11-22T10:01:01;15.20;;;10.90;;
75061;SDS011;63641;46.526;24.612;2023-11-22T10:03:29;13.02;;;10.45;;
75061;SDS011;63641;46.526;24.612;2023-11-22T10:05:57;13.85;;;10.75;;
75061;SDS011;63641;46.526;24.612;2023-11-22T10:08:25;11.77;;;8.75;;
75061;SDS011;63641;46.526;24.612;2023-11-22T10:10:53;14.20;;;9.15;;
75061;SDS011;63641;46.526;24.612;2023-11-22T10:13:21;11.77;;;9.18;;
75061;SDS011;63641;46.526;24.612;2023-11-22T10:15:49;14.40;;;10.38;;
75061;SDS011;63641;46.526;24.612;2023-11-22T10:18:17;12.70;;;10.12;;
75061;SDS011;63641;46.526;24.612;2023-11-22T10:20:44;13.52;;;9.90;;
75061;SDS011;63641;46.526;24.612;2023-11-22T10:23:13;11.63;;;10.20;;
75061;SDS011;63641;46.526;24.612;2023-11-22T10:25:44;12.80;;;10.48;;
75061;SDS011;63641;46.526;24.612;2023-11-22T10:28:13;13.57;;;9.73;;
75061;SDS011;63641;46.526;24.612;2023-11-22T10:30:40;12.45;;;10.02;;
75061;SDS011;63641;46.526;24.612;2023-11-22T10:33:09;12.15;;;10.02;;
75061;SDS011;63641;46.526;24.612;2023-11-22T10:35:47;14.45;;;10.70;;
75061;SDS011;63641;46.526;24.612;2023-11-22T10:38:18;13.38;;;10.52;;
75061;SDS011;63641;46.526;24.612;2023-11-22T10:40:46;13.23;;;11.93;;
75061;SDS011;63641;46.526;24.612;2023-11-22T10:43:14;15.60;;;11.73;;
75061;SDS011;63641;46.526;24.612;2023-11-22T10:45:43;11.60;;;10.38;;
75061;SDS011;63641;46.526;24.612;2023-11-22T10:48:17;13.02;;;11.25;;
75061;SDS011;63641;46.526;24.612;2023-11-22T10:50:45;15.57;;;12.07;;
75061;SDS011;63641;46.526;24.612;2023-11-22T10:53:15;14.50;;;11.50;;
75061;SDS011;63641;46.526;24.612;2023-11-22T10:55:46;16.70;;;12.00;;
75061;SDS011;63641;46.526;24.612;2023-11-22T10:58:15;14.05;;;11.27;;
75061;SDS011;63641;46.526;24.612;2023-11-22T11:00:43;14.75;;;11.25;;
75061;SDS011;63641;46.526;24.612;2023-11-22T11:03:17;15.70;;;10.52;;
75061;SDS011;63641;46.526;24.612;2023-11-22T11:05:57;12.63;;;10.80;;
75061;SDS011;63641;46.526;24.612;2023-11-22T11:08:28;16.70;;;10.90;;
75061;SDS011;63641;46.526;24.612;2023-11-22T11:10:55;12.93;;;10.60;;
75061;SDS011;63641;46.526;24.612;2023-11-22T11:13:23;12.30;;;10.40;;
75061;SDS011;63641;46.526;24.612;2023-11-22T11:15:52;11.90;;;10.50;;
75061;SDS011;63641;46.526;24.612;2023-11-22T11:18:20;11.90;;;9.57;;
75061;SDS011;63641;46.526;24.612;2023-11-22T11:20:57;9.90;;;8.90;;
75061;SDS011;63641;46.526;24.612;2023-11-22T11:23:29;13.70;;;9.63;;
75061;SDS011;63641;46.526;24.612;2023-11-22T11:25:58;11.93;;;10.65;;
75061;SDS011;63641;46.526;24.612;2023-11-22T11:28:45;14.15;;;10.48;;
75061;SDS011;63641;46.526;24.612;2023-11-22T11:31:14;16.08;;;10.00;;
75061;SDS011;63641;46.526;24.612;2023-11-22T11:36:29;13.27;;;10.40;;
75061;SDS011;63641;46.526;24.612;2023-11-22T11:39:01;15.00;;;10.10;;
75061;SDS011;63641;46.526;24.612;2023-11-22T11:41:33;14.10;;;10.27;;
75061;SDS011;63641;46.526;24.612;2023-11-22T11:44:01;13.18;;;10.48;;
75061;SDS011;63641;46.526;24.612;2023-11-22T11:46:29;14.63;;;10.23;;
75061;SDS011;63641;46.526;24.612;2023-11-22T11:48:56;12.57;;;10.98;;
75061;SDS011;63641;46.526;24.612;2023-11-22T11:51:24;13.80;;;10.57;;
75061;SDS011;63641;46.526;24.612;2023-11-22T11:53:53;14.23;;;10.75;;
75061;SDS011;63641;46.526;24.612;2023-11-22T11:56:21;12.73;;;11.23;;
75061;SDS011;63641;46.526;24.612;2023-11-22T11:58:50;13.43;;;11.95;;
75061;SDS011;63641;46.526;24.612;2023-11-22T12:01:17;12.30;;;11.07;;
75061;SDS011;63641;46.526;24.612;2023-11-22T12:03:46;14.88;;;12.20;;
75061;SDS011;63641;46.526;24.612;2023-11-22T12:06:16;13.93;;;11.50;;
75061;SDS011;63641;46.526;24.612;2023-11-22T12:08:45;13.65;;;11.95;;
75061;SDS011;63641;46.526;24.612;2023-11-22T12:11:14;15.23;;;11.88;;
75061;SDS011;63641;46.526;24.612;2023-11-22T12:13:42;17.77;;;11.27;;
75061;SDS011;63641;46.526;24.612;2023-11-22T12:16:17;17.25;;;12.60;;
75061;SDS011;63641;46.526;24.612;2023-11-22T12:18:48;16.70;;;12.27;;
75061;SDS011;63641;46.526;24.612;2023-11-22T12:21:16;15.18;;;11.38;;
75061;SDS011;63641;46.526;24.612;2023-11-22T12:23:45;14.18;;;12.23;;
75061;SDS011;63641;46.526;24.612;2023-11-22T12:26:15;18.13;;;12.00;;
75061;SDS011;63641;46.526;24.612;2023-11-22T12:28:47;15.15;;;11.90;;
75061;SDS011;63641;46.526;24.612;2023-11-22T12:31:29;13.38;;;11.98;;
75061;SDS011;63641;46.526;24.612;2023-11-22T12:34:02;15.95;;;11.35;;
75061;SDS011;63641;46.526;24.612;2023-11-22T12:36:29;16.90;;;12.50;;
75061;SDS011;63641;46.526;24.612;2023-11-22T12:38:56;13.45;;;11.57;;
75061;SDS011;63641;46.526;24.612;2023-11-22T12:41:26;14.70;;;11.60;;
75061;SDS011;63641;46.526;24.612;2023-11-22T12:44:16;16.23;;;12.70;;
75061;SDS011;63641;46.526;24.612;2023-11-22T12:46:50;15.90;;;13.23;;
75061;SDS011;63641;46.526;24.612;2023-11-22T12:49:27;13.52;;;11.60;;
75061;SDS011;63641;46.526;24.612;2023-11-22T12:51:57;12.80;;;11.18;;
75061;SDS011;63641;46.526;24.612;2023-11-22T12:54:24;14.90;;;11.55;;
75061;SDS011;63641;46.526;24.612;2023-11-22T12:56:51;14.10;;;12.48;;
75061;SDS011;63641;46.526;24.612;2023-11-22T12:59:29;13.05;;;11.65;;
75061;SDS011;63641;46.526;24.612;2023-11-22T13:01:57;15.82;;;12.45;;
75061;SDS011;63641;46.526;24.612;2023-11-22T13:04:27;12.93;;;11.63;;
75061;SDS011;63641;46.526;24.612;2023-11-22T13:06:56;12.50;;;10.77;;
75061;SDS011;63641;46.526;24.612;2023-11-22T13:09:25;12.73;;;11.35;;
75061;SDS011;63641;46.526;24.612;2023-11-22T13:11:52;13.07;;;11.32;;
75061;SDS011;63641;46.526;24.612;2023-11-22T13:14:19;12.35;;;11.05;;
75061;SDS011;63641;46.526;24.612;2023-11-22T13:16:46;12.27;;;11.07;;
75061;SDS011;63641;46.526;24.612;2023-11-22T13:19:13;11.65;;;10.50;;
75061;SDS011;63641;46.526;24.612;2023-11-22T13:21:40;13.10;;;10.82;;
75061;SDS011;63641;46.526;24.612;2023-11-22T13:24:07;14.57;;;11.27;;
75061;SDS011;63641;46.526;24.612;2023-11-22T13:26:35;13.30;;;11.35;;
75061;SDS011;63641;46.526;24.612;2023-11-22T13:29:02;15.20;;;11.63;;
75061;SDS011;63641;46.526;24.612;2023-11-22T13:31:29;12.90;;;11.32;;
75061;SDS011;63641;46.526;24.612;2023-11-22T13:33:55;12.77;;;9.77;;
75061;SDS011;63641;46.526;24.612;2023-11-22T13:36:22;13.80;;;12.05;;
75061;SDS011;63641;46.526;24.612;2023-11-22T13:38:49;12.65;;;10.20;;
75061;SDS011;63641;46.526;24.612;2023-11-22T13:41:16;13.73;;;12.32;;
75061;SDS011;63641;46.526;24.612;2023-11-22T13:43:43;12.85;;;11.23;;
75061;SDS011;63641;46.526;24.612;2023-11-22T13:46:10;13.20;;;10.20;;
75061;SDS011;63641;46.526;24.612;2023-11-22T13:48:38;13.20;;;10.75;;
75061;SDS011;63641;46.526;24.612;2023-11-22T13:51:05;13.93;;;10.18;;
75061;SDS011;63641;46.526;24.612;2023-11-22T13:53:37;11.27;;;9.68;;
75061;SDS011;63641;46.526;24.612;2023-11-22T13:56:09;10.82;;;9.73;;
75061;SDS011;63641;46.526;24.612;2023-11-22T13:58:36;14.52;;;10.02;;
75061;SDS011;63641;46.526;24.612;2023-11-22T14:01:04;14.60;;;10.73;;
75061;SDS011;63641;46.526;24.612;2023-11-22T14:03:36;22.80;;;17.55;;
75061;SDS011;63641;46.526;24.612;2023-11-22T14:06:03;15.48;;;11.45;;
75061;SDS011;63641;46.526;24.612;2023-11-22T14:08:31;11.95;;;10.75;;
75061;SDS011;63641;46.526;24.612;2023-11-22T14:10:58;12.63;;;11.32;;
75061;SDS011;63641;46.526;24.612;2023-11-22T14:13:25;12.20;;;10.90;;
75061;SDS011;63641;46.526;24.612;2023-11-22T14:15:51;12.40;;;11.07;;
75061;SDS011;63641;46.526;24.612;2023-11-22T14:18:18;14.70;;;10.95;;
75061;SDS011;63641;46.526;24.612;2023-11-22T14:20:45;14.75;;;12.27;;
75061;SDS011;63641;46.526;24.612;2023-11-22T14:23:11;14.20;;;11.60;;